createdAt,value
2018-07-24T00:02:33.906Z,59.01
2018-07-24T00:05:08.201Z,59.23
2018-07-24T00:07:42.771Z,58.96
2018-07-24T00:10:17.284Z,58.93
2018-07-24T00:12:51.634Z,59.27
2018-07-24T00:15:25.979Z,59.44
2018-07-24T00:18:00.413Z,59.08
2018-07-24T00:20:35.084Z,59.93
2018-07-24T00:23:09.650Z,60.07
2018-07-24T00:25:44.091Z,60.42
2018-07-24T00:28:18.565Z,59.61
2018-07-24T00:30:53.237Z,60.38
2018-07-24T00:33:27.744Z,59.69
2018-07-24T00:36:02.234Z,60.04
2018-07-24T00:38:36.833Z,60.00
2018-07-24T00:41:11.479Z,59.47
2018-07-24T00:43:46.033Z,59.66
2018-07-24T00:46:20.473Z,60.17
2018-07-24T00:48:54.889Z,59.82
2018-07-24T00:51:29.647Z,59.33
2018-07-24T00:54:04.223Z,59.68
2018-07-24T00:56:38.728Z,59.59
2018-07-24T00:59:13.144Z,59.72
2018-07-24T01:01:47.618Z,59.76
2018-07-24T01:04:22.253Z,59.52
2018-07-24T01:06:56.938Z,59.72
2018-07-24T01:09:31.572Z,59.72
2018-07-24T01:12:06.207Z,59.82
2018-07-24T01:14:40.959Z,59.59
2018-07-24T01:17:15.512Z,59.79
2018-07-24T01:19:50.043Z,60.67
2018-07-24T01:22:24.598Z,60.78
2018-07-24T01:24:59.136Z,60.57
2018-07-24T01:27:33.802Z,60.79
2018-07-24T01:30:08.382Z,60.88
2018-07-24T01:32:42.870Z,60.92
2018-07-24T01:35:17.563Z,61.17
2018-07-24T01:37:52.056Z,61.36
2018-07-24T01:40:26.625Z,61.42
2018-07-24T01:43:01.040Z,61.29
2018-07-24T01:45:35.393Z,61.68
2018-07-24T01:48:09.742Z,61.77
2018-07-24T01:50:44.297Z,61.87
2018-07-24T01:53:18.809Z,62.01
2018-07-24T01:55:53.215Z,61.90
2018-07-24T01:58:27.597Z,62.45
2018-07-24T02:01:03.513Z,62.42
2018-07-24T02:03:37.957Z,62.20
2018-07-24T02:06:12.401Z,62.33
2018-07-24T02:08:46.998Z,62.67
2018-07-24T02:11:21.717Z,62.28
2018-07-24T02:13:56.385Z,62.62
2018-07-24T02:16:31.000Z,63.13
2018-07-24T02:19:05.665Z,62.80
2018-07-24T02:21:40.335Z,64.04
2018-07-24T02:24:14.665Z,63.44
2018-07-24T02:26:49.082Z,63.16
2018-07-24T02:29:23.670Z,63.42
2018-07-24T02:31:58.113Z,63.72
2018-07-24T02:34:46.337Z,62.89
2018-07-24T02:37:21.001Z,63.64
2018-07-24T02:39:55.482Z,63.46
2018-07-24T02:42:30.045Z,63.57
2018-07-24T02:48:03.564Z,64.28
2018-07-24T02:50:45.179Z,63.54
2018-07-24T02:53:38.574Z,63.53
2018-07-24T02:56:13.769Z,64.99
2018-07-24T02:58:48.468Z,63.30
2018-07-24T03:01:36.432Z,64.00
2018-07-24T03:04:14.833Z,63.20
2018-07-24T03:07:03.581Z,63.65
2018-07-24T03:09:37.981Z,63.20
2018-07-24T03:21:09.900Z,63.50
2018-07-24T03:23:44.565Z,62.86
2018-07-24T03:26:39.086Z,63.01
2018-07-24T03:29:13.760Z,63.69
2018-07-24T03:38:06.732Z,63.74
2018-07-24T03:46:39.300Z,62.93
2018-07-24T03:49:13.810Z,63.67
2018-07-24T03:51:48.750Z,63.23
2018-07-24T03:54:23.356Z,62.38
2018-07-24T03:56:57.790Z,62.96
2018-07-24T03:59:32.372Z,62.50
2018-07-24T04:02:06.984Z,61.69
2018-07-24T04:04:41.645Z,62.22
2018-07-24T04:07:16.148Z,61.12
2018-07-24T04:09:50.637Z,61.31
2018-07-24T04:12:25.572Z,61.47
2018-07-24T04:15:00.377Z,61.50
2018-07-24T04:17:35.013Z,62.40
2018-07-24T04:20:09.530Z,62.12
2018-07-24T04:22:44.141Z,61.49
2018-07-24T04:25:18.708Z,60.97
2018-07-24T04:27:53.302Z,61.06
2018-07-24T04:30:27.894Z,60.99
2018-07-24T04:33:02.424Z,61.73
2018-07-24T04:35:37.046Z,61.31
2018-07-24T04:38:11.644Z,60.70
2018-07-24T04:40:46.353Z,59.97
2018-07-24T04:43:20.875Z,60.12
2018-07-24T04:45:55.428Z,60.95
2018-07-24T04:48:30.002Z,60.32
2018-07-24T04:51:04.609Z,60.16
2018-07-24T04:53:39.357Z,62.03
2018-07-24T04:56:13.949Z,61.24
2018-07-24T04:58:48.813Z,60.24
2018-07-24T05:01:23.545Z,58.95
2018-07-24T05:03:58.024Z,58.64
2018-07-24T05:06:32.828Z,58.12
2018-07-24T05:09:10.416Z,58.03
2018-07-24T05:11:45.093Z,56.67
2018-07-24T05:14:19.528Z,56.85
2018-07-24T05:16:54.001Z,55.58
2018-07-24T05:19:28.492Z,55.95
2018-07-24T05:22:02.904Z,55.79
2018-07-24T05:24:37.318Z,56.72
2018-07-24T05:27:11.709Z,57.58
2018-07-24T05:29:46.183Z,55.58
2018-07-24T05:32:20.759Z,54.50
2018-07-24T05:34:55.267Z,54.37
2018-07-24T05:37:30.484Z,57.34
2018-07-24T05:40:04.913Z,56.80
2018-07-24T05:42:39.372Z,52.94
2018-07-24T05:45:13.846Z,54.03
2018-07-24T05:47:48.508Z,52.66
2018-07-24T05:50:23.243Z,52.22
2018-07-24T05:52:57.812Z,51.07
2018-07-24T05:55:32.451Z,51.03
2018-07-24T05:58:07.889Z,50.67
2018-07-24T06:00:42.432Z,50.39
2018-07-24T06:03:17.134Z,51.02
2018-07-24T06:05:59.566Z,49.40
2018-07-24T06:08:33.939Z,48.21
2018-07-24T06:11:08.783Z,49.88
2018-07-24T06:13:44.108Z,51.19
2018-07-24T06:16:18.712Z,48.68
2018-07-24T06:18:53.469Z,47.40
2018-07-24T06:21:27.965Z,46.84
2018-07-24T06:24:02.489Z,48.20
2018-07-24T06:29:36.262Z,45.11
2018-07-24T06:32:10.677Z,42.94
2018-07-24T06:34:45.310Z,36.52
2018-07-24T06:37:19.791Z,31.26
2018-07-24T06:39:54.374Z,29.13
2018-07-24T06:42:28.926Z,28.30
2018-07-24T06:45:03.496Z,25.91
2018-07-24T06:47:38.322Z,23.70
2018-07-24T06:50:12.737Z,24.08
2018-07-24T06:52:48.144Z,23.65
2018-07-24T06:55:22.636Z,23.64
2018-07-24T06:57:57.032Z,21.79
2018-07-24T07:00:31.489Z,21.07
2018-07-24T07:03:05.902Z,21.32
2018-07-24T07:05:40.460Z,22.37
2018-07-24T07:08:14.895Z,19.97
2018-07-24T07:10:49.340Z,20.35
2018-07-24T07:13:23.657Z,18.57
2018-07-24T07:15:58.072Z,19.04
2018-07-24T07:18:32.416Z,20.17
2018-07-24T07:21:07.040Z,22.14
2018-07-24T07:23:41.568Z,18.83
2018-07-24T07:26:16.097Z,20.45
2018-07-24T07:28:50.819Z,21.97
2018-07-24T07:31:25.249Z,19.61
2018-07-24T07:33:59.905Z,16.54
2018-07-24T07:36:34.325Z,17.12
2018-07-24T07:39:09.865Z,16.49
2018-07-24T07:41:44.204Z,16.28
2018-07-24T07:44:18.728Z,14.74
2018-07-24T07:46:53.284Z,15.77
2018-07-24T07:49:27.681Z,14.31
2018-07-24T07:52:02.203Z,15.87
2018-07-24T07:54:36.701Z,17.99
2018-07-24T07:57:11.160Z,19.21
2018-07-24T07:59:45.809Z,16.52
2018-07-24T08:02:20.355Z,15.19
2018-07-24T08:04:54.637Z,14.51
2018-07-24T08:07:29.075Z,15.41
2018-07-24T08:10:03.524Z,16.90
2018-07-24T08:12:37.928Z,17.80
2018-07-24T08:15:12.280Z,17.95
2018-07-24T08:17:46.628Z,17.06
2018-07-24T08:20:21.024Z,14.66
2018-07-24T08:23:01.013Z,14.16
2018-07-24T08:25:35.364Z,17.98
2018-07-24T08:28:09.753Z,19.90
2018-07-24T08:30:44.266Z,17.72
2018-07-24T08:33:18.968Z,16.29
2018-07-24T08:36:00.096Z,16.53
2018-07-24T08:38:38.498Z,16.15
2018-07-24T08:41:13.168Z,17.02
2018-07-24T08:46:59.192Z,16.16
2018-07-24T08:49:33.844Z,16.17
2018-07-24T08:55:08.244Z,15.58
2018-07-24T08:57:42.853Z,15.47
2018-07-24T09:00:17.386Z,15.95
2018-07-24T09:02:52.517Z,15.27
2018-07-24T09:05:27.085Z,19.01
2018-07-24T09:08:01.943Z,15.60
2018-07-24T09:10:36.440Z,18.17
2018-07-24T09:13:11.071Z,19.24
2018-07-24T09:15:45.693Z,16.48
2018-07-24T09:18:20.268Z,17.56
2018-07-24T09:20:54.759Z,19.05
2018-07-24T09:23:29.220Z,14.17
2018-07-24T09:26:03.642Z,15.13
2018-07-24T09:28:38.576Z,13.23
2018-07-24T09:31:13.157Z,15.43
2018-07-24T09:33:47.549Z,14.78
2018-07-24T09:36:22.029Z,17.67
2018-07-24T09:38:56.616Z,17.41
2018-07-24T09:41:31.041Z,19.45
2018-07-24T09:44:05.508Z,16.51
2018-07-24T09:46:39.992Z,14.43
2018-07-24T09:49:14.597Z,13.70
2018-07-24T09:51:49.457Z,14.35
2018-07-24T09:54:24.402Z,17.32
2018-07-24T09:56:59.233Z,13.99
2018-07-24T09:59:33.946Z,18.11
2018-07-24T10:02:08.456Z,15.88
2018-07-24T10:04:43.492Z,15.32
2018-07-24T10:07:18.027Z,15.65
2018-07-24T10:09:52.612Z,15.51
2018-07-24T10:12:27.130Z,14.18
2018-07-24T10:15:05.816Z,13.91
2018-07-24T10:17:40.683Z,17.80
2018-07-24T10:20:15.320Z,14.76
2018-07-24T10:22:56.230Z,17.41
2018-07-24T10:25:30.809Z,16.93
2018-07-24T10:28:05.276Z,16.03
2018-07-24T10:30:39.663Z,14.16
2018-07-24T10:33:14.179Z,14.04
2018-07-24T10:35:55.084Z,13.10
2018-07-24T10:38:29.620Z,15.68
2018-07-24T10:41:18.256Z,14.27
2018-07-24T10:43:53.329Z,12.97
2018-07-24T10:46:27.666Z,13.71
2018-07-24T10:49:02.387Z,13.74
2018-07-24T10:54:35.760Z,15.48
2018-07-24T10:57:10.433Z,13.84
2018-07-24T10:59:45.707Z,14.93
2018-07-24T11:05:23.117Z,15.31
2018-07-24T11:11:00.651Z,15.89
2018-07-24T11:13:35.292Z,14.48
2018-07-24T11:16:09.720Z,14.78
2018-07-24T11:18:50.485Z,13.43
2018-07-24T11:21:24.957Z,12.93
2018-07-24T11:23:59.429Z,12.26
2018-07-24T11:26:33.840Z,12.97
2018-07-24T11:29:08.308Z,14.52
2018-07-24T11:31:42.808Z,15.95
2018-07-24T11:34:17.350Z,14.19
2018-07-24T11:36:51.985Z,18.45
2018-07-24T11:39:26.403Z,17.79
2018-07-24T11:42:00.758Z,16.35
2018-07-24T11:44:35.090Z,16.23
2018-07-24T11:47:09.460Z,18.45
2018-07-24T11:49:43.825Z,15.67
2018-07-24T11:52:18.488Z,19.09
2018-07-24T11:54:53.001Z,18.81
2018-07-24T11:57:27.528Z,20.52
2018-07-24T12:00:01.916Z,21.99
2018-07-24T12:02:36.305Z,21.22
2018-07-24T12:05:10.882Z,23.71
2018-07-24T12:07:45.558Z,25.54
2018-07-24T12:10:20.014Z,25.21
2018-07-24T12:12:54.935Z,24.02
2018-07-24T12:15:29.615Z,25.84
2018-07-24T12:18:03.996Z,25.28
2018-07-24T12:20:38.516Z,25.17
2018-07-24T12:23:13.061Z,23.93
2018-07-24T12:25:47.481Z,25.09
2018-07-24T12:28:21.917Z,24.99
2018-07-24T12:30:56.702Z,26.11
2018-07-24T12:33:31.363Z,25.43
2018-07-24T12:36:05.890Z,26.15
2018-07-24T12:38:40.480Z,26.87
2018-07-24T12:41:15.092Z,26.33
2018-07-24T12:43:49.546Z,25.67
2018-07-24T12:46:23.901Z,27.14
2018-07-24T12:48:58.478Z,26.24
2018-07-24T12:51:33.113Z,26.55
2018-07-24T12:54:07.528Z,26.51
2018-07-24T12:56:41.876Z,28.31
2018-07-24T12:59:16.406Z,26.38
2018-07-24T13:01:50.917Z,26.42
2018-07-24T13:04:25.618Z,27.34
2018-07-24T13:07:00.186Z,26.17
2018-07-24T13:09:34.688Z,26.40
2018-07-24T13:12:09.094Z,27.57
2018-07-24T13:14:43.705Z,27.92
2018-07-24T13:17:18.027Z,26.67
2018-07-24T13:19:52.677Z,26.51
2018-07-24T13:22:27.253Z,26.29
2018-07-24T13:25:01.728Z,25.92
2018-07-24T13:30:35.320Z,26.29
2018-07-24T13:33:09.816Z,26.86
2018-07-24T13:35:44.333Z,26.57
2018-07-24T13:38:18.753Z,26.73
2018-07-24T13:40:53.191Z,25.72
2018-07-24T13:43:27.636Z,26.33
2018-07-24T13:46:02.432Z,26.40
2018-07-24T13:48:36.917Z,25.47
2018-07-24T13:51:11.612Z,25.92
2018-07-24T13:53:45.973Z,26.01
2018-07-24T13:56:20.758Z,26.93
2018-07-24T13:58:55.170Z,25.92
2018-07-24T14:01:29.614Z,25.70
2018-07-24T14:04:04.587Z,25.55
2018-07-24T14:06:39.693Z,25.77
2018-07-24T14:09:14.500Z,25.84
2018-07-24T14:11:49.053Z,24.94
2018-07-24T14:14:23.504Z,26.56
2018-07-24T14:16:57.980Z,25.11
2018-07-24T14:19:32.562Z,25.15
2018-07-24T14:22:06.875Z,25.06
2018-07-24T14:24:41.355Z,24.25
2018-07-24T14:27:16.596Z,24.15
2018-07-24T14:29:51.031Z,24.03
2018-07-24T14:32:26.382Z,23.81
2018-07-24T14:35:01.063Z,22.11
2018-07-24T14:37:35.341Z,20.65
2018-07-24T14:40:09.814Z,20.50
2018-07-24T14:42:44.354Z,20.82
2018-07-24T14:45:18.810Z,18.04
2018-07-24T14:47:53.071Z,18.63
2018-07-24T14:50:27.565Z,18.18
2018-07-24T14:53:01.808Z,19.44
2018-07-24T14:55:36.245Z,17.66
2018-07-24T14:58:28.102Z,18.00
2018-07-24T15:01:02.604Z,18.67
2018-07-24T15:03:37.015Z,18.33
2018-07-24T15:06:11.453Z,19.10
2018-07-24T15:08:49.299Z,19.38
2018-07-24T15:11:23.720Z,20.71
2018-07-24T15:13:58.024Z,20.09
2018-07-24T15:16:44.611Z,19.40
2018-07-24T15:19:18.912Z,19.39
2018-07-24T15:21:53.312Z,19.29
2018-07-24T15:24:27.987Z,19.39
2018-07-24T15:27:02.451Z,20.06
2018-07-24T15:29:36.748Z,18.48
2018-07-24T15:32:11.518Z,20.66
2018-07-24T15:34:46.060Z,21.00
2018-07-24T15:37:20.746Z,21.17
2018-07-24T15:39:55.007Z,22.90
2018-07-24T15:42:29.468Z,22.20
2018-07-24T15:45:03.925Z,22.82
2018-07-24T15:47:38.315Z,24.20
2018-07-24T15:50:13.063Z,25.25
2018-07-24T15:52:47.647Z,25.49
2018-07-24T15:55:22.091Z,24.83
2018-07-24T15:57:56.571Z,24.88
2018-07-24T16:00:31.059Z,25.24
2018-07-24T16:03:05.707Z,25.30
2018-07-24T16:05:39.914Z,25.10
2018-07-24T16:08:14.419Z,26.03
2018-07-24T16:10:48.797Z,26.53
2018-07-24T16:13:23.333Z,26.49
2018-07-24T16:15:57.827Z,26.91
2018-07-24T16:18:32.339Z,26.83
2018-07-24T16:21:06.708Z,26.16
2018-07-24T16:23:41.015Z,27.19
2018-07-24T16:29:22.745Z,28.63
2018-07-24T16:31:57.174Z,28.23
2018-07-24T16:34:31.633Z,28.11
2018-07-24T16:37:12.644Z,29.48
2018-07-24T16:39:56.792Z,29.59
2018-07-24T16:42:31.223Z,28.05
2018-07-24T16:45:05.740Z,27.83
2018-07-24T16:47:40.328Z,27.69
2018-07-24T16:50:14.623Z,27.37
2018-07-24T16:52:48.939Z,28.39
2018-07-24T16:58:25.783Z,28.00
2018-07-24T17:01:00.260Z,27.78
2018-07-24T17:03:34.805Z,28.39
2018-07-24T17:06:09.511Z,28.87
2018-07-24T17:08:43.961Z,28.30
2018-07-24T17:11:18.456Z,28.82
2018-07-24T17:13:52.799Z,28.58
2018-07-24T17:16:27.400Z,29.35
2018-07-24T17:19:01.920Z,30.96
2018-07-24T17:21:36.384Z,29.35
2018-07-24T17:24:27.475Z,28.54
2018-07-24T17:27:13.296Z,29.49
2018-07-24T17:29:48.656Z,28.74
2018-07-24T17:32:23.480Z,28.68
2018-07-24T17:34:58.328Z,31.42
2018-07-24T17:37:32.909Z,30.97
2018-07-24T17:40:07.548Z,30.12
2018-07-24T17:42:42.156Z,31.38
2018-07-24T17:45:16.815Z,32.62
2018-07-24T17:47:51.498Z,32.57
2018-07-24T17:50:26.145Z,30.60
2018-07-24T17:53:00.728Z,30.71
2018-07-24T17:55:35.148Z,31.77
2018-07-24T17:58:09.508Z,30.39
2018-07-24T18:00:44.017Z,32.54
2018-07-24T18:03:18.372Z,32.86
2018-07-24T18:05:52.759Z,31.98
2018-07-24T18:08:27.197Z,32.86
2018-07-24T18:11:01.677Z,34.03
2018-07-24T18:13:36.307Z,33.58
2018-07-24T18:16:10.904Z,32.45
2018-07-24T18:18:45.337Z,31.17
2018-07-24T18:21:25.310Z,33.08
2018-07-24T18:24:01.025Z,32.88
2018-07-24T18:26:42.833Z,33.67
2018-07-24T18:29:21.708Z,33.68
2018-07-24T18:32:10.913Z,33.28
2018-07-24T18:34:46.436Z,33.86
2018-07-24T18:37:21.216Z,34.43
2018-07-24T18:39:56.000Z,34.52
2018-07-24T18:42:38.211Z,34.10
2018-07-24T18:48:10.587Z,35.56
2018-07-24T18:50:45.758Z,33.94
2018-07-24T18:53:20.192Z,34.72
2018-07-24T18:56:08.571Z,34.28
2018-07-24T18:58:46.692Z,35.85
2018-07-24T19:01:21.068Z,34.69
2018-07-24T19:03:55.391Z,36.08
2018-07-24T19:06:29.783Z,35.95
2018-07-24T19:09:06.076Z,36.44
2018-07-24T19:11:40.572Z,34.94
2018-07-24T19:14:14.844Z,35.57
2018-07-24T19:16:49.616Z,37.02
2018-07-24T19:19:24.275Z,37.58
2018-07-24T19:21:58.824Z,35.21
2018-07-24T19:24:33.719Z,35.33
2018-07-24T19:27:08.196Z,37.33
2018-07-24T19:29:42.736Z,37.56
2018-07-24T19:32:17.232Z,38.19
2018-07-24T19:34:51.937Z,37.07
2018-07-24T19:37:26.260Z,37.30
2018-07-24T19:40:00.793Z,37.51
2018-07-24T19:42:35.590Z,38.90
2018-07-24T19:45:10.096Z,39.51
2018-07-24T19:47:44.619Z,39.86
2018-07-24T19:50:19.191Z,41.40
2018-07-24T19:52:53.899Z,39.90
2018-07-24T19:55:28.524Z,39.71
2018-07-24T19:58:03.024Z,38.88
2018-07-24T20:00:37.828Z,36.93
2018-07-24T20:03:12.340Z,37.86
2018-07-24T20:05:46.871Z,38.43
2018-07-24T20:08:21.239Z,39.88
2018-07-24T20:10:56.024Z,39.31
2018-07-24T20:13:30.437Z,39.13
2018-07-24T20:16:05.116Z,41.21
2018-07-24T20:21:36.856Z,39.06
2018-07-24T20:24:11.725Z,40.48
2018-07-24T20:26:46.692Z,39.32
2018-07-24T20:29:21.764Z,40.12
2018-07-24T20:31:56.609Z,40.06
2018-07-24T20:34:51.987Z,40.65
2018-07-24T20:43:27.824Z,41.52
2018-07-24T20:46:02.207Z,41.80
2018-07-24T20:48:36.718Z,41.41
2018-07-24T20:51:11.062Z,42.58
2018-07-24T20:53:45.272Z,42.34
2018-07-24T20:56:19.609Z,42.82
2018-07-24T20:58:54.083Z,43.63
2018-07-24T21:01:28.459Z,43.45
2018-07-24T21:04:02.832Z,43.50
2018-07-24T21:06:37.255Z,44.14
2018-07-24T21:09:11.641Z,43.68
2018-07-24T21:11:45.960Z,44.56
2018-07-24T21:14:20.732Z,44.49
2018-07-24T21:16:55.235Z,44.30
2018-07-24T21:19:29.523Z,44.81
2018-07-24T21:22:03.951Z,44.48
2018-07-24T21:24:38.659Z,44.49
2018-07-24T21:27:13.183Z,44.90
2018-07-24T21:29:47.580Z,44.34
2018-07-24T21:32:22.154Z,45.26
2018-07-24T21:34:56.485Z,45.50
2018-07-24T21:37:31.205Z,45.32
2018-07-24T21:40:06.168Z,45.31
2018-07-24T21:42:40.630Z,45.47
2018-07-24T21:45:14.876Z,46.90
2018-07-24T21:47:49.561Z,46.02
2018-07-24T21:50:23.959Z,46.44
2018-07-24T21:52:58.504Z,45.90
2018-07-24T21:56:36.227Z,45.72
2018-07-24T21:59:10.580Z,47.81
2018-07-24T22:01:45.208Z,47.98
2018-07-24T22:04:19.639Z,48.56
2018-07-24T22:06:54.262Z,48.94
2018-07-24T22:09:28.980Z,48.11
2018-07-24T22:12:08.044Z,49.03
2018-07-24T22:14:42.258Z,48.72
2018-07-24T22:17:16.879Z,48.21
2018-07-24T22:19:51.257Z,48.48
2018-07-24T22:22:25.540Z,47.95
2018-07-24T22:24:59.915Z,47.71
2018-07-24T22:27:34.603Z,46.71
2018-07-24T22:30:09.672Z,47.36
2018-07-24T22:32:44.103Z,46.32
2018-07-24T22:35:18.334Z,46.04
2018-07-24T22:37:52.728Z,45.43
2018-07-24T22:40:26.967Z,45.38
2018-07-24T22:43:01.189Z,45.14
2018-07-24T22:45:35.545Z,44.34
2018-07-24T22:48:09.897Z,44.71
2018-07-24T22:50:44.260Z,44.59
2018-07-24T22:53:18.653Z,44.96
2018-07-24T22:55:53.329Z,45.13
2018-07-24T22:58:28.074Z,46.11
2018-07-24T23:01:02.460Z,45.77
2018-07-24T23:03:36.841Z,46.17
2018-07-24T23:06:11.560Z,46.94
2018-07-24T23:08:45.841Z,47.13
2018-07-24T23:11:20.121Z,47.54
2018-07-24T23:13:54.855Z,47.75
2018-07-24T23:16:29.422Z,48.10
2018-07-24T23:19:04.064Z,48.50
2018-07-24T23:21:38.831Z,48.48
2018-07-24T23:24:14.241Z,48.21
2018-07-24T23:26:48.904Z,48.66
2018-07-24T23:29:23.768Z,48.92
2018-07-24T23:31:58.286Z,49.61
2018-07-24T23:34:36.895Z,49.72
2018-07-24T23:37:12.897Z,50.40
2018-07-24T23:39:47.461Z,50.28
2018-07-24T23:42:21.967Z,50.92
2018-07-24T23:44:56.622Z,51.56
2018-07-24T23:47:31.084Z,51.57
2018-07-24T23:50:05.609Z,51.85
2018-07-24T23:52:40.418Z,52.85
2018-07-24T23:55:14.881Z,53.37
2018-07-24T23:57:49.309Z,53.47
